| time (UTC) | temp C | wind direction | speed KPH | gust KPH | rain 1hr cm | rain 24hr cm | rain mn cm | humidity % | barometer mb |
| 20260902043017 | 24 | 115 | 1.6 | 0.0 | 0.00 | 0.00 | 1.02 | 81 | 1005.1 |
| 20260902041600 | 26 | 279 | 1.6 | 0.0 | 0.00 | 0.00 | 0.99 | 75 | 1005.1 |
| 20260902033007 | 32 | 239 | 0.0 | 0.0 | 0.00 | 0.00 | 0.00 | 57 | 1004.0 |
| 20260902031558 | 32 | 287 | 0.0 | 0.0 | 0.00 | 0.00 | 0.00 | 60 | 1004.3 |
| 20260902030008 | 31 | 255 | 0.0 | 0.0 | 0.00 | 0.00 | 0.00 | 61 | 1004.4 |
| 20260902024514 | 31 | 286 | 0.0 | 0.0 | 0.00 | 0.00 | 0.00 | 62 | 1004.5 |
| 20260902023004 | 30 | 172 | 0.0 | 0.0 | 0.00 | 0.00 | 0.00 | 66 | 1004.6 |
| 20260902021600 | 29 | 124 | 0.0 | 0.0 | 0.00 | 0.00 | 0.00 | 68 | 1005.0 |
| 20260902020011 | 28 | 131 | 0.0 | 0.0 | 0.00 | 0.00 | 0.00 | 69 | 1005.1 |
| 20260902014535 | 28 | 246 | 0.0 | 0.0 | 0.00 | 0.00 | 0.00 | 70 | 1005.2 |
| 20260902013100 | 28 | 315 | 1.6 | 0.0 | 0.00 | 0.00 | 0.00 | 73 | 1005.4 |
| 20260902011554 | 27 | 274 | 0.0 | 0.0 | 0.00 | 0.00 | 0.00 | 80 | 1005.6 |
| 20260902010002 | 26 | 256 | 0.0 | 0.0 | 0.00 | 0.00 | 0.00 | 89 | 1005.7 |
| 20260902004514 | 25 | 112 | 0.0 | 0.0 | 0.00 | 0.00 | 0.00 | 95 | 1005.7 |
| 20260902003033 | 25 | 282 | 0.0 | 0.0 | 0.00 | 0.00 | 0.00 | 97 | 1005.7 |
| 20260902001548 | 23 | 237 | 0.0 | 0.0 | 0.00 | 0.00 | 0.00 | 98 | 1005.9 |
| 20260902000021 | 23 | 137 | 0.0 | 0.0 | 0.00 | 0.00 | 0.00 | 97 | 1006.1 |
| 20260901234501 | 22 | 101 | 0.0 | 0.0 | 0.00 | 0.00 | 0.00 | 97 | 1006.0 |
| 20260901233010 | 22 | 108 | 0.0 | 0.0 | 0.00 | 0.00 | 0.00 | 98 | 1006.2 |
| 20260901231507 | 22 | 108 | 0.0 | 0.0 | 0.00 | 0.00 | 0.00 | 98 | 1006.0 |
| 20260901230011 | 22 | 128 | 0.0 | 0.0 | 0.00 | 0.00 | 0.00 | 98 | 1006.0 |
| 20260901223013 | 21 | 128 | 0.0 | 0.0 | 0.00 | 0.00 | 0.00 | 97 | 1005.9 |
| 20260901221520 | 21 | 128 | 0.0 | 0.0 | 0.00 | 0.00 | 0.00 | 97 | 1005.9 |
| 20260901220121 | 21 | 128 | 0.0 | 0.0 | 0.00 | 0.00 | 0.00 | 97 | 1006.1 |
| 20260901213006 | 20 | 128 | 0.0 | 0.0 | 0.00 | 0.00 | 0.00 | 97 | 1006.2 |
| 20260901211501 | 20 | 128 | 0.0 | 0.0 | 0.00 | 0.00 | 0.00 | 97 | 1006.1 |
| 20260901210023 | 20 | 128 | 0.0 | 0.0 | 0.00 | 0.00 | 0.00 | 97 | 1006.0 |
| 20260901204516 | 20 | 128 | 0.0 | 0.0 | 0.00 | 0.00 | 0.00 | 97 | 1006.0 |
| 20260901203103 | 20 | 128 | 0.0 | 0.0 | 0.00 | 0.00 | 0.00 | 97 | 1006.1 |
| 20260901201521 | 20 | 128 | 0.0 | 0.0 | 0.00 | 0.00 | 0.00 | 97 | 1006.1 |
| 20260901200016 | 20 | 103 | 0.0 | 0.0 | 0.00 | 0.00 | 0.00 | 97 | 1006.2 |
| 20260901194601 | 20 | 103 | 0.0 | 0.0 | 0.00 | 0.00 | 0.00 | 97 | 1006.2 |
| 20260901193027 | 20 | 103 | 0.0 | 0.0 | 0.00 | 0.00 | 0.00 | 97 | 1006.2 |
| 20260901191553 | 20 | 103 | 0.0 | 0.0 | 0.00 | 0.00 | 0.00 | 97 | 1006.2 |
| 20260901190012 | 20 | 103 | 0.0 | 0.0 | 0.00 | 0.00 | 0.00 | 97 | 1006.4 |
| 20260901184513 | 20 | 103 | 0.0 | 0.0 | 0.00 | 0.00 | 0.00 | 97 | 1006.5 |
| 20260901183103 | 20 | 103 | 0.0 | 0.0 | 0.00 | 0.00 | 0.00 | 97 | 1006.7 |
| 20260901181605 | 20 | 103 | 0.0 | 0.0 | 0.00 | 0.00 | 0.00 | 97 | 1006.7 |
| 20260901180103 | 20 | 103 | 0.0 | 0.0 | 0.00 | 0.00 | 0.00 | 97 | 1006.7 |
| 20260901174521 | 20 | 103 | 0.0 | 0.0 | 0.00 | 0.00 | 0.00 | 97 | 1006.7 |
| 20260901173024 | 20 | 103 | 0.0 | 0.0 | 0.00 | 0.00 | 0.00 | 97 | 1007.0 |
| 20260901171522 | 20 | 103 | 0.0 | 0.0 | 0.00 | 0.00 | 0.00 | 97 | 1007.0 |
| 20260901170052 | 20 | 103 | 0.0 | 0.0 | 0.00 | 0.00 | 0.00 | 96 | 1007.2 |
| 20260901164510 | 20 | 103 | 0.0 | 0.0 | 0.00 | 0.00 | 0.00 | 96 | 1007.2 |
| 20260901163038 | 20 | 103 | 0.0 | 0.0 | 0.00 | 0.00 | 0.00 | 96 | 1007.0 |
| 20260901161602 | 20 | 103 | 0.0 | 0.0 | 0.00 | 0.00 | 0.00 | 96 | 1007.2 |
| 20260901160017 | 20 | 103 | 0.0 | 0.0 | 0.00 | 0.00 | 0.00 | 96 | 1007.6 |
| 20260901154502 | 20 | 103 | 0.0 | 0.0 | 0.00 | 0.00 | 0.00 | 96 | 1007.8 |
| 20260901151517 | 20 | 103 | 0.0 | 0.0 | 0.00 | 0.00 | 0.00 | 96 | 1008.2 |
| 20260901150004 | 20 | 103 | 0.0 | 0.0 | 0.00 | 0.00 | 0.23 | 96 | 1008.3 |
| 20260901144522 | 20 | 103 | 0.0 | 0.0 | 0.00 | 0.00 | 0.23 | 96 | 1008.4 |
| 20260901143030 | 20 | 103 | 0.0 | 0.0 | 0.00 | 0.00 | 0.23 | 96 | 1008.5 |
| 20260901141526 | 20 | 103 | 0.0 | 0.0 | 0.00 | 0.00 | 0.23 | 96 | 1008.7 |
| 20260901140008 | 20 | 103 | 0.0 | 0.0 | 0.00 | 0.00 | 0.23 | 96 | 1008.8 |
| 20260901134555 | 20 | 103 | 0.0 | 0.0 | 0.00 | 0.00 | 0.23 | 96 | 1008.8 |
| 20260901133113 | 20 | 100 | 0.0 | 0.0 | 0.00 | 0.00 | 0.23 | 95 | 1008.8 |
| 20260901131503 | 20 | 105 | 0.0 | 0.0 | 0.00 | 0.00 | 0.23 | 95 | 1008.8 |
| 20260901130024 | 20 | 105 | 0.0 | 0.0 | 0.00 | 0.00 | 0.20 | 95 | 1009.0 |
| 20260901124520 | 20 | 105 | 0.0 | 0.0 | 0.00 | 0.00 | 0.20 | 95 | 1009.2 |
| 20260901123028 | 21 | 105 | 0.0 | 0.0 | 0.00 | 0.00 | 0.20 | 95 | 1009.3 |
| 20260901121608 | 21 | 105 | 0.0 | 0.0 | 0.00 | 0.00 | 0.20 | 94 | 1009.4 |
| 20260901114536 | 21 | 105 | 0.0 | 0.0 | 0.00 | 0.00 | 0.18 | 94 | 1009.7 |
| 20260901113019 | 21 | 104 | 0.0 | 0.0 | 0.00 | 0.00 | 0.18 | 93 | 1009.8 |
| 20260901111524 | 21 | 103 | 0.0 | 0.0 | 0.00 | 0.00 | 0.15 | 92 | 1009.8 |
| 20260901110020 | 21 | 256 | 0.0 | 0.0 | 0.00 | 0.00 | 0.15 | 92 | 1009.7 |
| 20260901104513 | 21 | 285 | 0.0 | 0.0 | 0.00 | 0.00 | 0.15 | 92 | 1009.5 |
| 20260901103107 | 21 | 285 | 0.0 | 0.0 | 0.00 | 0.00 | 0.15 | 92 | 1009.4 |
| 20260901101502 | 21 | 285 | 0.0 | 0.0 | 0.00 | 0.00 | 0.15 | 91 | 1009.4 |
| 20260901100104 | 21 | 285 | 0.0 | 0.0 | 0.00 | 0.00 | 0.13 | 91 | 1009.3 |
| 20260901094520 | 21 | 285 | 0.0 | 0.0 | 0.00 | 0.00 | 0.13 | 90 | 1009.2 |
| 20260901093012 | 21 | 285 | 0.0 | 0.0 | 0.00 | 0.00 | 0.13 | 90 | 1009.1 |
| 20260901091601 | 21 | 285 | 0.0 | 0.0 | 0.00 | 0.00 | 0.13 | 89 | 1009.1 |
| 20260901090026 | 21 | 285 | 0.0 | 0.0 | 0.00 | 0.00 | 0.13 | 89 | 1009.0 |
| 20260901084612 | 21 | 285 | 0.0 | 0.0 | 0.00 | 0.00 | 0.13 | 88 | 1008.9 |
| 20260901083056 | 21 | 273 | 0.0 | 0.0 | 0.00 | 0.00 | 0.13 | 88 | 1009.0 |
| 20260901081509 | 21 | 283 | 0.0 | 0.0 | 0.00 | 0.00 | 0.10 | 87 | 1008.9 |
| 20260901080114 | 22 | 167 | 0.0 | 0.0 | 0.00 | 0.00 | 0.10 | 86 | 1008.8 |
| 20260901074602 | 22 | 156 | 0.0 | 0.0 | 0.00 | 0.00 | 0.10 | 86 | 1008.8 |
| 20260901073019 | 22 | 152 | 0.0 | 0.0 | 0.00 | 0.00 | 0.10 | 85 | 1008.9 |
| 20260901071523 | 22 | 194 | 0.0 | 0.0 | 0.00 | 0.00 | 0.10 | 84 | 1008.9 |
| 20260901070007 | 22 | 148 | 0.0 | 0.0 | 0.00 | 0.00 | 0.10 | 82 | 1008.9 |
| 20260901064515 | 22 | 167 | 0.0 | 0.0 | 0.00 | 0.00 | 0.10 | 82 | 1008.9 |
| 20260901063116 | 22 | 169 | 0.0 | 0.0 | 0.00 | 0.00 | 0.10 | 82 | 1008.9 |
| 20260901061621 | 22 | 183 | 0.0 | 0.0 | 0.00 | 0.00 | 0.10 | 81 | 1008.9 |
| 20260901060013 | 22 | 228 | 0.0 | 0.0 | 0.00 | 0.00 | 0.10 | 81 | 1008.9 |
| 20260901054513 | 22 | 150 | 1.6 | 0.0 | 0.00 | 0.00 | 0.10 | 81 | 1008.8 |
| 20260901053012 | 22 | 165 | 0.0 | 0.0 | 0.00 | 0.00 | 0.10 | 81 | 1009.0 |
| 20260901051526 | 22 | 127 | 0.0 | 0.0 | 0.00 | 0.00 | 0.10 | 80 | 1009.0 |
| 20260901050011 | 22 | 140 | 1.6 | 0.0 | 0.00 | 0.00 | 0.10 | 80 | 1009.0 |
| 20260901044606 | 22 | 138 | 1.6 | 0.0 | 0.00 | 0.00 | 0.10 | 80 | 1009.1 |